Time;durP1;ratioP1;P1;durP2;ratioP2;P2;SDS_P1;SDS_P2;PMS_P1;PMS_P2;Temp;Humidity;BMP_temperature;BMP_pressure;BME280_temperature;BME280_humidity;BME280_pressure;Samples;Min_cycle;Max_cycle;Signal;HPM_P1;HPM_P2
2021/12/22 00:01:08;;;;;;;20.67;6.77;;;;;;;-8.46;98.43;97746.97;5069939;28;20361;-60
2021/12/22 00:03:38;;;;;;;17.83;7.53;;;;;;;-8.42;98.49;97746.16;5070535;28;20382;-61
2021/12/22 00:06:05;;;;;;;20.67;7.50;;;;;;;-8.39;98.54;97747.00;5068610;28;20310;-60
2021/12/22 00:08:32;;;;;;;33.57;9.30;;;;;;;-8.40;98.54;97750.41;5071556;28;20290;-60
2021/12/22 00:10:59;;;;;;;13.17;5.80;;;;;;;-8.48;98.75;97751.22;5069944;28;20294;-60
2021/12/22 00:13:26;;;;;;;19.43;7.73;;;;;;;-8.48;99.52;97753.78;5070113;28;20337;-60
2021/12/22 00:15:52;;;;;;;20.37;8.27;;;;;;;-8.46;99.85;97762.28;5071610;28;20283;-59
2021/12/22 00:18:19;;;;;;;21.23;8.63;;;;;;;-8.42;99.96;97752.09;5071812;28;20282;-60
2021/12/22 00:20:47;;;;;;;20.47;7.30;;;;;;;-8.39;99.60;97762.31;5069367;28;20325;-59
2021/12/22 00:23:14;;;;;;;20.17;7.53;;;;;;;-8.39;99.79;97761.47;5070005;28;20779;-60
2021/12/22 00:25:41;;;;;;;20.27;9.60;;;;;;;-8.34;100.00;97745.31;5069736;28;20624;-59
2021/12/22 00:28:08;;;;;;;17.37;7.77;;;;;;;-8.42;99.98;97756.38;5069914;28;20318;-59
2021/12/22 00:30:38;;;;;;;21.40;7.47;;;;;;;-8.44;100.00;97760.59;5068696;28;20386;-59
2021/12/22 00:33:07;;;;;;;21.67;9.03;;;;;;;-8.41;100.00;97764.00;5069892;28;20286;-60
2021/12/22 00:35:41;;;;;;;22.57;9.03;;;;;;;-8.43;100.00;97760.63;5069913;28;20322;-59
2021/12/22 00:38:10;;;;;;;21.70;9.93;;;;;;;-8.38;100.00;97763.19;5069472;28;20313;-59
2021/12/22 00:40:38;;;;;;;22.70;7.87;;;;;;;-8.39;100.00;97764.88;5069674;28;20616;-60
2021/12/22 00:43:06;;;;;;;20.70;7.93;;;;;;;-8.33;100.00;97762.34;5069751;28;20343;-60
2021/12/22 00:45:34;;;;;;;21.40;8.07;;;;;;;-8.24;100.00;97766.59;5069526;28;20279;-60
2021/12/22 00:48:01;;;;;;;20.97;8.63;;;;;;;-8.28;100.00;97770.00;5070870;28;20290;-60
2021/12/22 00:50:28;;;;;;;18.33;8.97;;;;;;;-8.26;100.00;97771.75;5069816;28;20663;-60
2021/12/22 00:52:55;;;;;;;24.77;9.57;;;;;;;-8.28;100.00;97770.88;5069245;28;20291;-60
2021/12/22 00:55:23;;;;;;;21.83;8.87;;;;;;;-8.29;100.00;97766.63;5068295;28;20290;-60
2021/12/22 00:57:51;;;;;;;24.07;9.50;;;;;;;-8.28;100.00;97773.41;5069734;28;20632;-60
2021/12/22 01:00:20;;;;;;;30.53;10.43;;;;;;;-8.22;100.00;97777.69;5068632;28;20666;-59
2021/12/22 01:02:47;;;;;;;28.20;9.23;;;;;;;-8.17;100.00;97789.63;5073029;28;20640;-59
2021/12/22 01:05:16;;;;;;;28.47;9.43;;;;;;;-8.15;100.00;97782.84;5073844;28;20655;-59
2021/12/22 01:07:44;;;;;;;29.30;10.00;;;;;;;-8.08;100.00;97779.41;5073960;28;20295;-59
2021/12/22 01:10:12;;;;;;;21.33;10.00;;;;;;;-8.02;100.00;97786.25;5073384;28;20287;-60
2021/12/22 01:12:40;;;;;;;30.40;11.87;;;;;;;-8.05;100.00;97774.31;5073702;28;20667;-59
2021/12/22 01:15:11;;;;;;;29.33;9.87;;;;;;;-8.08;100.00;97783.69;5073474;28;20286;-59
2021/12/22 01:17:39;;;;;;;23.67;10.63;;;;;;;-8.04;100.00;97780.28;5073403;28;20287;-59
2021/12/22 01:20:11;;;;;;;22.63;9.93;;;;;;;-8.04;100.00;97786.28;5074375;28;20300;-60
2021/12/22 01:22:47;;;;;;;31.63;10.95;;;;;;;-8.07;100.00;97790.50;5074927;28;20298;-60
2021/12/22 01:25:16;;;;;;;21.63;8.87;;;;;;;-8.07;100.00;97781.16;5073346;28;20045;-60
2021/12/22 01:27:44;;;;;;;23.53;8.97;;;;;;;-8.10;100.00;97787.94;5073540;28;20295;-60
2021/12/22 01:30:15;;;;;;;30.60;11.00;;;;;;;-8.13;100.00;97775.16;5072875;28;20303;-60
2021/12/22 01:32:43;;;;;;;27.30;9.53;;;;;;;-8.13;100.00;97781.13;5072123;28;20297;-59
2021/12/22 01:35:13;;;;;;;29.47;10.10;;;;;;;-8.05;100.00;97778.59;5072842;28;20287;-60
2021/12/22 01:37:40;;;;;;;25.63;8.17;;;;;;;-8.05;100.00;97776.03;5073574;28;20297;-60
2021/12/22 01:40:10;;;;;;;23.57;9.53;;;;;;;-8.07;100.00;97776.03;5073058;28;20755;-60
2021/12/22 01:42:37;;;;;;;23.37;10.23;;;;;;;-8.13;100.00;97781.13;5073069;28;20283;-59
2021/12/22 01:45:28;;;;;;;28.03;10.73;;;;;;;-8.18;100.00;97766.63;5073058;28;20290;-60
2021/12/22 01:50:43;;;;;;;29.73;11.90;;;;;;;-8.18;100.00;97776.84;5072790;28;20326;-60
2021/12/22 01:53:36;;;;;;;22.13;9.83;;;;;;;-8.21;100.00;97776.84;5072512;28;20763;-60
2021/12/22 01:56:13;;;;;;;24.65;11.20;;;;;;;-8.23;100.00;97776.00;5072257;28;20314;-60
2021/12/22 01:58:43;;;;;;;28.30;10.57;;;;;;;-8.22;100.00;97780.25;5072507;28;20516;-59
2021/12/22 02:01:13;;;;;;;27.20;11.33;;;;;;;-8.18;100.00;97779.41;5072807;28;20278;-60
2021/12/22 02:03:40;;;;;;;26.93;11.67;;;;;;;-8.18;100.00;97777.72;5072268;28;20352;-60
2021/12/22 02:06:08;;;;;;;28.13;12.13;;;;;;;-8.17;100.00;97787.06;5072869;28;20291;-60
2021/12/22 02:08:35;;;;;;;25.53;10.37;;;;;;;-8.20;100.00;97774.28;5072169;28;20631;-60
2021/12/22 02:11:02;;;;;;;28.27;10.53;;;;;;;-8.18;100.00;97782.81;5072455;28;20298;-60
2021/12/22 02:13:33;;;;;;;25.70;11.67;;;;;;;-8.17;100.00;97788.75;5071358;28;20291;-60
2021/12/22 02:16:05;;;;;;;33.30;13.13;;;;;;;-8.13;100.00;97781.13;5072372;28;21400;-60
2021/12/22 02:18:34;;;;;;;28.23;11.90;;;;;;;-8.09;100.00;97785.38;5072370;28;20294;-60
2021/12/22 02:21:03;;;;;;;28.60;11.40;;;;;;;-8.07;100.00;97785.41;5072371;28;20362;-59
2021/12/22 02:23:30;;;;;;;31.37;11.53;;;;;;;-8.09;100.00;97793.03;5071405;28;20294;-60
2021/12/22 02:26:03;;;;;;;33.90;12.03;;;;;;;-8.09;100.00;97777.72;5072694;28;20322;-60
2021/12/22 02:28:33;;;;;;;32.47;12.07;;;;;;;-8.06;100.00;97779.44;5072008;28;20299;-60
2021/12/22 02:31:00;;;;;;;40.37;13.53;;;;;;;-8.04;100.00;97791.38;5071765;28;20297;-60
2021/12/22 02:33:34;;;;;;;29.07;10.87;;;;;;;-8.02;100.00;97782.00;5070998;28;20642;-59
2021/12/22 02:36:09;;;;;;;35.53;14.17;;;;;;;-7.96;100.00;97787.13;5070882;28;20290;-60
2021/12/22 02:38:38;;;;;;;35.83;12.90;;;;;;;-7.99;100.00;97791.38;5070887;28;20663;-58
2021/12/22 02:41:09;;;;;;;27.30;12.70;;;;;;;-8.01;100.00;97798.19;5071855;28;20290;-60
2021/12/22 02:43:43;;;;;;;26.53;11.47;;;;;;;-7.98;100.00;97787.97;5071875;28;20365;-60
2021/12/22 02:46:11;;;;;;;33.17;14.97;;;;;;;-7.97;100.00;97793.06;5071484;28;20298;-60
2021/12/22 02:48:38;;;;;;;29.53;12.13;;;;;;;-7.98;100.00;97795.66;5071722;28;20773;-60
2021/12/22 02:51:06;;;;;;;34.10;13.73;;;;;;;-7.95;100.00;97795.63;5071673;28;20775;-60
2021/12/22 02:53:41;;;;;;;31.30;12.63;;;;;;;-7.93;100.00;97799.91;5069033;28;20287;-60
2021/12/22 02:56:24;;;;;;;28.60;11.47;;;;;;;-7.94;100.00;97797.34;5071669;28;20290;-60
2021/12/22 02:58:59;;;;;;;31.55;12.02;;;;;;;-7.96;100.00;97802.47;5071032;28;20286;-60
2021/12/22 03:01:52;;;;;;;38.17;14.30;;;;;;;-7.89;100.00;97801.63;5071195;28;20036;-58
2021/12/22 03:04:23;;;;;;;32.80;12.07;;;;;;;-7.88;100.00;97808.44;5071188;28;20294;-60
2021/12/22 03:06:55;;;;;;;34.00;13.50;;;;;;;-7.92;100.00;97800.75;5070922;28;20291;-60
2021/12/22 03:09:25;;;;;;;28.37;12.70;;;;;;;-7.92;100.00;97806.72;5071383;28;20294;-60
2021/12/22 03:11:53;;;;;;;33.60;13.03;;;;;;;-7.89;100.00;97800.75;5071094;28;20309;-60
2021/12/22 03:14:21;;;;;;;31.67;12.40;;;;;;;-7.93;100.00;97806.72;5070351;28;20302;-59
2021/12/22 03:16:49;;;;;;;28.80;11.90;;;;;;;-7.93;100.00;97810.13;5069672;28;20303;-60
2021/12/22 03:19:18;;;;;;;28.40;12.73;;;;;;;-7.89;100.00;97800.75;5069876;28;20286;-59
2021/12/22 03:21:47;;;;;;;36.23;13.90;;;;;;;-7.88;100.00;97812.69;5069981;28;20290;-59
2021/12/22 03:24:19;;;;;;;31.23;12.83;;;;;;;-7.90;100.00;97815.22;5070886;28;20370;-59
2021/12/22 03:26:45;;;;;;;33.37;13.70;;;;;;;-7.88;100.00;97808.44;5069760;28;20283;-59
2021/12/22 03:29:14;;;;;;;35.23;14.43;;;;;;;-7.91;100.00;97805.88;5070813;28;20294;-59
2021/12/22 03:31:42;;;;;;;36.03;15.77;;;;;;;-7.90;100.00;97805.00;5069408;28;20302;-59
2021/12/22 03:34:09;;;;;;;33.77;13.80;;;;;;;-7.93;100.00;97816.94;5071356;28;20340;-59
2021/12/22 03:36:36;;;;;;;30.87;12.17;;;;;;;-7.96;100.00;97815.22;5070206;28;20282;-59
2021/12/22 03:39:06;;;;;;;33.00;12.90;;;;;;;-7.95;100.00;97822.03;5070690;28;20589;-60
2021/12/22 03:41:37;;;;;;;37.50;15.03;;;;;;;-7.93;100.00;97825.47;5070010;28;20271;-58
2021/12/22 03:44:05;;;;;;;34.30;13.17;;;;;;;-7.94;100.00;97826.28;5070689;28;20290;-59
2021/12/22 03:46:33;;;;;;;37.47;15.13;;;;;;;-7.91;100.00;97825.44;5070575;28;20279;-58
2021/12/22 03:49:00;;;;;;;35.00;13.30;;;;;;;-7.86;100.00;97828.88;5070550;28;20282;-59
2021/12/22 03:51:27;;;;;;;32.07;14.33;;;;;;;-7.91;100.00;97828.84;5070599;28;20381;-59
2021/12/22 03:53:54;;;;;;;31.13;13.93;;;;;;;-7.85;100.00;97833.13;5070313;28;20332;-59
2021/12/22 03:56:22;;;;;;;39.87;14.33;;;;;;;-7.80;100.00;97841.66;5069138;28;20297;-59
2021/12/22 03:58:51;;;;;;;38.73;14.37;;;;;;;-7.75;100.00;97840.81;5070693;28;20377;-58
2021/12/22 04:01:17;;;;;;;40.37;15.47;;;;;;;-7.72;100.00;97845.94;5069671;28;20299;-59
2021/12/22 04:03:48;;;;;;;32.47;13.13;;;;;;;-7.70;100.00;97834.03;5070305;28;20690;-59
2021/12/22 04:06:14;;;;;;;30.67;13.93;;;;;;;-7.70;100.00;97839.13;5070532;28;20287;-59
2021/12/22 04:08:41;;;;;;;39.77;14.27;;;;;;;-7.68;100.00;97847.63;5070301;28;20322;-59
2021/12/22 04:11:08;;;;;;;28.73;12.60;;;;;;;-7.72;100.00;97845.94;5070525;28;20755;-58
2021/12/22 04:13:35;;;;;;;30.60;14.00;;;;;;;-7.68;100.00;97849.38;5068809;28;20291;-58
2021/12/22 04:16:03;;;;;;;33.87;13.63;;;;;;;-7.68;100.00;97847.63;5070209;28;20301;-59
2021/12/22 04:18:30;;;;;;;26.00;11.60;;;;;;;-7.58;100.00;97854.47;5067943;28;20275;-58
2021/12/22 04:20:57;;;;;;;31.17;14.23;;;;;;;-7.56;100.00;97863.03;5069918;28;20298;-59
2021/12/22 04:23:24;;;;;;;42.37;15.17;;;;;;;-7.53;100.00;97857.88;5069991;28;20372;-59
2021/12/22 04:25:51;;;;;;;33.67;13.57;;;;;;;-7.53;100.00;97857.88;5069885;28;20305;-59
2021/12/22 04:28:18;;;;;;;33.93;14.53;;;;;;;-7.54;100.00;97860.44;5070707;28;20285;-59
2021/12/22 04:30:48;;;;;;;29.77;13.90;;;;;;;-7.55;100.00;97862.16;5070621;28;20297;-58
2021/12/22 04:33:17;;;;;;;32.80;14.27;;;;;;;-7.49;100.00;97864.72;5070071;28;20290;-58
2021/12/22 04:35:44;;;;;;;38.43;16.17;;;;;;;-7.50;100.00;97863.00;5068417;28;20344;-58
2021/12/22 04:38:11;;;;;;;41.13;15.90;;;;;;;-7.49;100.00;97864.72;5070042;28;20295;-58
2021/12/22 04:40:38;;;;;;;36.17;15.17;;;;;;;-7.51;100.00;97866.44;5070899;28;20279;-58
2021/12/22 04:43:05;;;;;;;32.67;14.30;;;;;;;-7.48;100.00;97871.56;5070019;28;20322;-58
2021/12/22 04:45:32;;;;;;;34.97;14.40;;;;;;;-7.45;100.00;97857.91;5069731;28;20294;-58
2021/12/22 04:47:59;;;;;;;40.10;16.53;;;;;;;-7.42;100.00;97865.59;5069636;28;20309;-58
2021/12/22 04:50:28;;;;;;;37.63;16.47;;;;;;;-7.40;100.00;97869.00;5069373;28;20279;-58
2021/12/22 04:52:59;;;;;;;38.63;15.27;;;;;;;-7.34;100.00;97869.88;5068602;28;20298;-58
2021/12/22 04:55:28;;;;;;;40.03;17.87;;;;;;;-7.25;100.00;97869.88;5069446;28;20322;-58
2021/12/22 04:57:57;;;;;;;44.40;16.13;;;;;;;-7.33;100.00;97874.13;5070492;28;20285;-58
2021/12/22 05:00:26;;;;;;;40.77;18.77;;;;;;;-7.27;100.00;97878.41;5069507;28;20291;-59
2021/12/22 05:02:54;;;;;;;46.00;15.97;;;;;;;-7.33;100.00;97883.50;5070837;28;20282;-65
2021/12/22 05:05:21;;;;;;;42.50;17.77;;;;;;;-7.37;100.00;97890.31;5069031;28;20344;-65
2021/12/22 05:07:49;;;;;;;45.93;17.67;;;;;;;-7.41;100.00;97883.50;5070216;28;20314;-66
2021/12/22 05:10:19;;;;;;;37.50;12.97;;;;;;;-7.47;100.00;97892.84;5069730;28;20287;-64
2021/12/22 05:12:47;;;;;;;31.40;10.17;;;;;;;-7.46;100.00;97892.84;5070145;28;20301;-64
2021/12/22 05:15:17;;;;;;;24.13;10.40;;;;;;;-7.45;100.00;97909.03;5069994;28;20317;-65
2021/12/22 05:20:43;;;;;;;19.70;9.00;;;;;;;-7.49;100.00;97909.91;5027878;28;20316;-65
2021/12/22 05:23:11;;;;;;;17.93;5.53;;;;;;;-7.59;100.00;97911.56;5027962;28;20343;-65
2021/12/22 05:25:38;;;;;;;16.37;7.13;;;;;;;-7.63;100.00;97914.97;5034056;28;20348;-64
2021/12/22 05:28:05;;;;;;;15.77;6.20;;;;;;;-7.63;100.00;97907.31;5068657;28;20314;-65
2021/12/22 05:30:32;;;;;;;8.80;3.43;;;;;;;-7.73;100.00;97920.91;5070154;28;20283;-65
2021/12/22 05:32:59;;;;;;;13.03;5.70;;;;;;;-7.74;100.00;97919.19;5069820;28;20390;-65
2021/12/22 05:35:25;;;;;;;6.43;4.03;;;;;;;-7.72;100.00;97917.50;5069949;28;20283;-65
2021/12/22 05:37:53;;;;;;;10.13;3.40;;;;;;;-7.68;100.00;97923.47;5069699;28;20819;-65
2021/12/22 05:40:21;;;;;;;7.77;3.57;;;;;;;-7.71;100.00;97934.53;5068550;28;20298;-64
2021/12/22 05:42:48;;;;;;;10.53;5.30;;;;;;;-7.83;100.00;97929.38;5070025;28;20366;-65
2021/12/22 05:45:15;;;;;;;9.10;4.27;;;;;;;-7.85;100.00;97932.78;5068468;28;20298;-65
2021/12/22 05:47:42;;;;;;;12.23;4.83;;;;;;;-7.79;100.00;97938.75;5069803;28;20302;-65
2021/12/22 05:50:09;;;;;;;9.00;4.07;;;;;;;-7.79;100.00;97938.75;5073307;28;20290;-65
2021/12/22 05:52:36;;;;;;;6.70;3.23;;;;;;;-7.80;100.00;97942.16;5072006;28;20301;-65
2021/12/22 05:55:04;;;;;;;10.30;4.03;;;;;;;-7.85;100.00;97945.56;5073548;28;20297;-65
2021/12/22 05:57:32;;;;;;;10.80;4.17;;;;;;;-7.82;99.61;97948.13;5073474;28;20279;-65
2021/12/22 05:59:59;;;;;;;11.53;3.73;;;;;;;-7.84;99.69;97950.66;5072636;28;20310;-64
2021/12/22 06:02:26;;;;;;;10.73;4.87;;;;;;;-7.83;99.35;97954.91;5071930;28;20662;-65
2021/12/22 06:04:53;;;;;;;12.70;5.77;;;;;;;-7.84;98.80;97954.91;5073114;28;20850;-65
2021/12/22 06:07:20;;;;;;;10.77;4.53;;;;;;;-7.82;98.79;97960.91;5072924;28;20294;-65
2021/12/22 06:09:46;;;;;;;11.00;4.23;;;;;;;-7.84;98.61;97963.44;5073144;28;20290;-65
2021/12/22 06:12:14;;;;;;;8.63;4.27;;;;;;;-7.84;98.58;97957.47;5072926;28;20290;-65
2021/12/22 06:14:42;;;;;;;12.03;4.80;;;;;;;-7.82;98.78;97968.56;5072655;28;20286;-66
2021/12/22 06:17:09;;;;;;;9.50;3.83;;;;;;;-7.86;98.22;97969.41;5072994;28;20299;-66
2021/12/22 06:19:35;;;;;;;14.00;5.10;;;;;;;-7.91;97.93;97966.81;5071675;28;20278;-66
2021/12/22 06:22:02;;;;;;;8.17;4.30;;;;;;;-7.91;98.21;97965.94;5071472;28;20282;-66
2021/12/22 06:24:30;;;;;;;4.93;2.87;;;;;;;-7.95;97.41;97984.66;5072951;28;20361;-66
2021/12/22 06:26:57;;;;;;;12.43;4.73;;;;;;;-8.00;97.79;97977.00;5072663;28;20393;-66
2021/12/22 06:29:25;;;;;;;12.73;5.27;;;;;;;-7.96;98.01;97982.97;5072421;28;20766;-66
2021/12/22 06:31:53;;;;;;;10.03;4.20;;;;;;;-8.01;97.91;97982.94;5072629;28;20294;-66
2021/12/22 06:34:20;;;;;;;14.53;6.90;;;;;;;-7.86;98.16;97993.22;5073774;28;20294;-66
2021/12/22 06:36:47;;;;;;;14.70;6.53;;;;;;;-7.84;97.63;97989.00;5054747;28;20306;-67
2021/12/22 06:39:14;;;;;;;17.03;6.27;;;;;;;-7.78;98.12;97981.38;5072848;28;20287;-65
2021/12/22 06:41:41;;;;;;;18.57;7.67;;;;;;;-7.70;98.01;97989.06;5072898;28;20283;-65
2021/12/22 06:44:08;;;;;;;29.90;7.73;;;;;;;-7.70;98.10;97991.59;5071977;28;20322;-64
2021/12/22 06:46:35;;;;;;;19.87;7.60;;;;;;;-7.78;98.21;97995.84;5072467;28;20283;-67
2021/12/22 06:49:03;;;;;;;18.53;6.77;;;;;;;-7.79;97.97;98005.19;5071987;28;20632;-67
2021/12/22 06:51:30;;;;;;;18.83;8.17;;;;;;;-7.82;97.60;97992.38;5072337;28;20352;-66
2021/12/22 06:53:57;;;;;;;27.33;9.77;;;;;;;-7.94;97.49;98007.66;5071943;28;20601;-65
2021/12/22 06:56:24;;;;;;;17.57;7.20;;;;;;;-7.99;97.65;98011.03;5072203;28;20627;-65
2021/12/22 06:58:51;;;;;;;18.17;6.93;;;;;;;-8.07;98.01;98007.59;5072218;28;20295;-66
2021/12/22 07:01:20;;;;;;;15.57;6.40;;;;;;;-8.14;98.10;98011.81;5070918;28;20283;-65
2021/12/22 07:03:47;;;;;;;23.23;6.47;;;;;;;-8.16;98.43;98010.94;5072014;28;20365;-65
2021/12/22 07:06:15;;;;;;;12.50;5.33;;;;;;;-8.09;98.47;98012.69;5071831;28;20774;-67
2021/12/22 07:08:42;;;;;;;12.87;5.97;;;;;;;-7.93;98.33;98023.88;5072130;28;20309;-65
2021/12/22 07:11:09;;;;;;;13.10;6.30;;;;;;;-7.81;98.02;98016.25;5072805;28;20964;-65
2021/12/22 07:13:37;;;;;;;14.03;5.67;;;;;;;-7.74;97.04;98021.41;5069945;28;20295;-65
2021/12/22 07:16:04;;;;;;;10.97;5.70;;;;;;;-7.76;97.20;98024.78;5071785;28;20290;-65
2021/12/22 07:18:32;;;;;;;15.27;5.93;;;;;;;-7.80;97.41;98028.19;5071537;28;20770;-65
2021/12/22 07:20:59;;;;;;;16.90;7.10;;;;;;;-7.79;96.90;98028.19;5071534;28;20283;-66
2021/12/22 07:23:27;;;;;;;16.77;7.63;;;;;;;-7.86;97.39;98029.00;5071699;28;20329;-66
2021/12/22 07:25:54;;;;;;;21.00;7.80;;;;;;;-7.69;97.25;98031.66;5070830;28;20290;-65
2021/12/22 07:28:21;;;;;;;22.17;8.10;;;;;;;-7.61;97.23;98025.72;5071133;28;20366;-66
2021/12/22 07:30:47;;;;;;;19.53;6.33;;;;;;;-7.53;96.28;98033.44;5072622;28;20298;-66
2021/12/22 07:33:14;;;;;;;15.83;6.63;;;;;;;-7.36;96.90;98025.00;5071908;28;20298;-65
2021/12/22 07:35:46;;;;;;;18.53;6.73;;;;;;;-7.31;95.28;98032.69;5071698;28;20297;-66
2021/12/22 07:38:27;;;;;;;17.00;6.27;;;;;;;-7.27;95.37;98032.69;5071199;28;20380;-66
2021/12/22 07:40:57;;;;;;;19.00;6.97;;;;;;;-7.27;94.27;98035.22;5071873;28;20767;-67
2021/12/22 07:43:24;;;;;;;16.70;6.37;;;;;;;-7.26;93.78;98034.41;5070138;28;20344;-66
2021/12/22 07:45:51;;;;;;;18.97;6.57;;;;;;;-7.08;93.59;98047.25;5071642;28;21167;-65
2021/12/22 07:48:19;;;;;;;12.97;5.30;;;;;;;-7.08;92.62;98041.28;5071610;28;20361;-65
2021/12/22 07:50:46;;;;;;;16.40;5.70;;;;;;;-7.09;92.24;98034.47;5070649;28;20301;-66
2021/12/22 07:53:12;;;;;;;14.13;6.67;;;;;;;-6.98;92.58;98036.19;5072206;28;20298;-66
2021/12/22 07:55:39;;;;;;;15.57;7.07;;;;;;;-6.90;91.18;98031.91;5071165;28;20282;-66
2021/12/22 07:58:09;;;;;;;18.07;7.30;;;;;;;-6.77;90.61;98027.69;5071203;28;21101;-65
2021/12/22 08:00:36;;;;;;;20.90;8.50;;;;;;;-6.63;90.13;98036.25;5071393;28;20282;-66
2021/12/22 08:03:03;;;;;;;19.50;6.87;;;;;;;-6.59;88.99;98037.94;5071468;28;20766;-66
2021/12/22 08:05:31;;;;;;;16.10;7.30;;;;;;;-6.69;88.41;98041.38;5071409;28;20314;-66
2021/12/22 08:07:59;;;;;;;14.93;6.53;;;;;;;-6.67;88.09;98043.06;5069668;28;20485;-66
2021/12/22 08:10:26;;;;;;;17.77;6.10;;;;;;;-6.55;87.47;98048.19;5070711;28;20279;-66
2021/12/22 08:12:53;;;;;;;13.20;6.37;;;;;;;-6.52;86.90;98050.78;5071067;28;20390;-65
2021/12/22 08:15:21;;;;;;;13.27;6.03;;;;;;;-6.42;86.04;98049.91;5071399;28;20682;-65
2021/12/22 08:17:48;;;;;;;13.83;6.00;;;;;;;-6.28;86.47;98044.81;5071291;28;20315;-65
2021/12/22 08:20:15;;;;;;;15.13;6.47;;;;;;;-6.25;85.21;98056.75;5071834;28;20438;-64
2021/12/22 08:22:43;;;;;;;16.27;6.33;;;;;;;-6.28;84.42;98060.19;5070220;28;20055;-66
2021/12/22 08:25:10;;;;;;;14.57;6.07;;;;;;;-6.28;85.32;98056.75;5070943;28;20233;-68
2021/12/22 08:27:37;;;;;;;15.17;5.83;;;;;;;-6.12;85.35;98061.00;5069909;28;20076;-66
2021/12/22 08:30:05;;;;;;;10.90;5.83;;;;;;;-6.03;84.85;98068.72;5070229;28;20075;-67
2021/12/22 08:32:37;;;;;;;16.93;5.30;;;;;;;-5.99;83.77;98065.28;5071178;28;20102;-67
2021/12/22 08:35:07;;;;;;;11.13;4.27;;;;;;;-5.83;84.44;98074.66;5071870;28;20114;-67
2021/12/22 08:40:19;;;;;;;9.83;4.83;;;;;;;-5.90;82.58;98071.25;5071625;28;20033;-64
2021/12/22 08:42:47;;;;;;;13.00;6.33;;;;;;;-5.82;82.16;98069.53;5071478;28;20538;-64
2021/12/22 08:45:14;;;;;;;10.00;4.87;;;;;;;-5.56;81.72;98078.03;5071947;28;20052;-64
2021/12/22 08:47:43;;;;;;;15.63;6.43;;;;;;;-5.27;81.18;98071.09;5072113;28;20040;-64
2021/12/22 08:50:12;;;;;;;15.83;5.53;;;;;;;-5.38;80.53;98071.97;5071535;28;20102;-64
2021/12/22 08:52:39;;;;;;;12.13;6.13;;;;;;;-5.06;79.53;98073.59;5070748;28;20048;-64
2021/12/22 08:55:07;;;;;;;11.03;5.43;;;;;;;-4.74;79.84;98068.28;5071987;28;20051;-64
2021/12/22 08:57:34;;;;;;;16.40;6.57;;;;;;;-4.92;77.58;98065.81;5071702;28;20041;-64
2021/12/22 09:00:01;;;;;;;30.70;14.07;;;;;;;-5.17;78.75;98059.94;5070916;28;20037;-64
2021/12/22 09:02:28;;;;;;;10.53;4.60;;;;;;;-4.94;77.23;98062.38;5070808;28;20064;-64
2021/12/22 09:04:56;;;;;;;12.70;5.93;;;;;;;-4.69;76.03;98056.25;5071188;28;20036;-64
2021/12/22 09:07:23;;;;;;;11.00;5.73;;;;;;;-4.69;76.72;98040.84;5071343;28;20096;-64
2021/12/22 09:09:50;;;;;;;15.33;6.20;;;;;;;-5.25;75.90;98060.84;5071366;28;20393;-64
2021/12/22 09:12:17;;;;;;;7.77;4.20;;;;;;;-5.38;76.36;98057.44;5071267;28;20131;-64
2021/12/22 09:14:43;;;;;;;8.73;5.10;;;;;;;-5.49;76.58;98061.75;5070939;28;20040;-64
2021/12/22 09:17:10;;;;;;;11.47;4.80;;;;;;;-4.99;76.38;98051.31;5071072;28;20119;-64
2021/12/22 09:19:37;;;;;;;15.07;6.03;;;;;;;-5.12;75.85;98067.63;5071034;28;20037;-64
2021/12/22 09:22:06;;;;;;;9.77;4.00;;;;;;;-5.27;75.30;98065.97;5071583;28;20033;-63
2021/12/22 09:24:32;;;;;;;8.97;4.73;;;;;;;-5.10;74.43;98060.75;5075040;28;20501;-64
2021/12/22 09:26:59;;;;;;;12.40;5.93;;;;;;;-5.27;74.76;98053.13;5074973;28;20427;-64
2021/12/22 09:29:29;;;;;;;8.13;3.90;;;;;;;-4.71;74.46;98045.16;5074626;28;20044;-65
2021/12/22 09:32:05;;;;;;;10.23;4.73;;;;;;;-4.44;72.82;98047.53;5075483;28;20105;-65
2021/12/22 09:34:32;;;;;;;9.67;4.80;;;;;;;-4.53;73.87;98043.31;5072804;28;20123;-66
2021/12/22 09:36:59;;;;;;;13.27;6.00;;;;;;;-4.53;72.79;98055.31;5073880;28;20470;-64
2021/12/22 09:39:27;;;;;;;11.93;5.03;;;;;;;-4.43;71.96;98052.66;5073948;28;20036;-63
2021/12/22 09:41:54;;;;;;;15.63;5.27;;;;;;;-4.00;72.24;98055.75;5072551;28;20133;-64
2021/12/22 09:44:23;;;;;;;7.63;4.27;;;;;;;-3.85;71.28;98035.91;5073067;28;20063;-69
2021/12/22 09:46:53;;;;;;;8.40;3.30;;;;;;;-4.36;70.83;98044.06;5073049;28;20401;-67
2021/12/22 09:49:35;;;;;;;10.83;4.60;;;;;;;-4.44;70.59;98038.13;5073394;28;20044;-66
2021/12/22 09:52:19;;;;;;;8.77;4.00;;;;;;;-4.44;70.61;98048.41;5072704;28;20048;-66
2021/12/22 09:54:50;;;;;;;9.00;3.60;;;;;;;-3.76;70.53;98047.78;5070399;28;20370;-69
2021/12/22 09:57:18;;;;;;;9.73;4.03;;;;;;;-3.56;67.95;98035.59;5071903;28;20114;-65
2021/12/22 09:59:46;;;;;;;9.37;4.87;;;;;;;-3.77;68.31;98036.69;5072762;28;20040;-66
2021/12/22 10:02:14;;;;;;;11.63;4.07;;;;;;;-3.87;68.04;98041.91;5072597;28;20041;-66
2021/12/22 10:04:41;;;;;;;9.77;4.57;;;;;;;-4.16;68.26;98049.06;5072676;28;20037;-67
2021/12/22 10:07:09;;;;;;;9.60;3.53;;;;;;;-4.48;67.97;98043.28;5072676;28;20485;-66
2021/12/22 10:09:44;;;;;;;10.33;4.57;;;;;;;-4.56;68.94;98035.63;5071660;28;20055;-67
2021/12/22 10:12:17;;;;;;;8.97;4.23;;;;;;;-4.31;69.33;98044.88;5074001;28;20045;-65
2021/12/22 10:14:53;;;;;;;10.63;4.75;;;;;;;-4.53;69.28;98051.03;5073119;28;20049;-66
2021/12/22 10:17:34;;;;;;;7.43;3.47;;;;;;;-4.57;69.82;98053.59;5073220;28;20045;-66
2021/12/22 10:20:03;;;;;;;13.13;5.17;;;;;;;-4.72;69.64;98049.44;5072594;28;20388;-66
2021/12/22 10:22:32;;;;;;;6.50;3.27;;;;;;;-4.98;70.22;98045.28;5072952;28;20045;-66
2021/12/22 10:25:09;;;;;;;27.07;11.23;;;;;;;-4.95;70.22;98045.28;5071470;28;20036;-67
2021/12/22 10:27:40;;;;;;;35.87;10.43;;;;;;;-4.87;70.83;98046.09;5069419;28;20048;-68
2021/12/22 10:30:25;;;;;;;15.30;6.30;;;;;;;-4.88;71.38;98044.41;5070844;28;20044;-68
2021/12/22 10:33:09;;;;;;;10.17;3.73;;;;;;;-5.07;71.06;98053.06;5069842;28;20075;-67
2021/12/22 10:35:38;;;;;;;8.40;3.57;;;;;;;-5.13;71.88;98060.78;5058787;28;20049;-68
2021/12/22 10:38:06;;;;;;;8.47;3.93;;;;;;;-4.91;71.59;98057.25;5066457;28;20044;-66
2021/12/22 10:40:34;;;;;;;11.60;5.00;;;;;;;-4.83;70.79;98076.91;5056018;28;20044;-66
2021/12/22 10:43:05;;;;;;;11.57;5.27;;;;;;;-5.01;71.10;98058.19;5055345;28;20052;-66
2021/12/22 10:45:35;;;;;;;13.97;4.67;;;;;;;-5.26;70.72;98069.41;5059098;28;20048;-66
2021/12/22 10:50:54;;;;;;;10.43;4.40;;;;;;;-5.04;71.71;98071.84;5058524;28;20040;-74
2021/12/22 10:53:21;;;;;;;12.03;4.43;;;;;;;-5.08;71.59;98062.47;5072772;28;20037;-60
2021/12/22 10:55:50;;;;;;;11.23;4.43;;;;;;;-5.31;71.08;98068.53;5071434;28;20383;-61
2021/12/22 10:58:22;;;;;;;10.20;3.97;;;;;;;-5.29;71.38;98059.13;5072898;28;20045;-60
2021/12/22 11:01:14;;;;;;;7.60;3.97;;;;;;;-5.16;71.08;98066.78;5073999;28;20045;-61
2021/12/22 11:03:47;;;;;;;5.57;2.17;;;;;;;-5.17;70.95;98065.09;5044122;28;20056;-65
2021/12/22 11:06:22;;;;;;;4.50;2.95;;;;;;;-5.59;71.04;98054.09;5066117;28;20048;-65
2021/12/22 11:09:01;;;;;;;7.70;3.37;;;;;;;-5.77;72.37;98062.69;5072129;28;20446;-66
2021/12/22 11:11:33;;;;;;;5.23;2.73;;;;;;;-5.78;72.02;98058.41;5072810;28;20722;-64
2021/12/22 11:14:08;;;;;;;5.57;2.63;;;;;;;-5.62;72.17;98066.94;5072342;28;20067;-62
2021/12/22 11:16:55;;;;;;;7.87;3.10;;;;;;;-5.69;72.07;98062.66;5071089;28;20512;-61
2021/12/22 11:19:22;;;;;;;8.20;3.33;;;;;;;-5.72;72.72;98067.78;5070553;28;20059;-62
2021/12/22 11:21:59;;;;;;;7.40;3.83;;;;;;;-5.71;73.36;98069.50;5071488;28;20068;-61
2021/12/22 11:24:27;;;;;;;11.47;3.70;;;;;;;-5.62;73.75;98074.63;5071381;28;20045;-67
2021/12/22 11:26:55;;;;;;;8.27;3.77;;;;;;;-5.51;73.91;98068.63;5071037;28;20040;-67
2021/12/22 11:29:24;;;;;;;7.83;4.40;;;;;;;-5.65;73.76;98064.38;5070472;28;20127;-60
2021/12/22 11:31:52;;;;;;;7.77;3.67;;;;;;;-5.64;73.11;98060.94;5054526;28;20143;-63
2021/12/22 11:34:20;;;;;;;7.23;2.83;;;;;;;-5.72;71.04;98066.09;5069377;28;20049;-64
2021/12/22 11:36:48;;;;;;;5.03;2.53;;;;;;;-5.95;71.11;98074.69;5070925;28;20124;-63
2021/12/22 11:39:15;;;;;;;4.73;2.70;;;;;;;-6.05;72.27;98073.81;5071264;28;20043;-64